Decoded Metar for SBKP (CAMPINAS in BRAZIL) (IATA:VCP) | Meteo·Mobile Aviation Weather
aviador You're here:

SBKP Decoded Metar

CAMPINAS in BRAZIL
Report Time2019-02-16 06:00:00
UTC Time2019-02-16 06:59:22
Flight Rules ifr IFR
Wind030° at 08 kt
W.Decomp.*RWY 33: 1.4 kt HW 7.9 kt RCW
W.Rank030° ranks 11
Current wind is above 030° avg. (6.4)
Visibility9999 m
Phenomena:Light Rain
Clouds:Scattered 004 Hf
Overcast 006 Hf
Expected CloudBase > 400 ft AGL from Temp-Dew spread
Ceiling600 ft
Temp21°C (ISA +10)
Dew Point20°C (94% RH)
QNH1009 hPa
Density Alt3,822 ft
Elevation2,169 ft
Report Wrong Elevation
Raw Report
METAR SBKP 160600Z 03008KT 9999 -RA SCT004 OVC006 21/20 Q1009=

Extra information for SBKP:More info

Metar Taf Metar & Taf Last 4 Metars F.Rules Stats Wind Profile Meteogram Temp Stats Airport Information Weather charts Add Link Nearby VenuesMetar ALERT Operation Metar Decoded Social comments